Time;durP1;ratioP1;P1;durP2;ratioP2;P2;SDS_P1;SDS_P2;PMS_P1;PMS_P2;Temp;Humidity;BMP_temperature;BMP_pressure;BME280_temperature;BME280_humidity;BME280_pressure;Samples;Min_cycle;Max_cycle;Signal;HPM_P1;HPM_P2
2021/09/02 04:55:54;;;;;;;18.95;10.00;;;;;;;11.55;84.71;100904.41;5024728;28;106198;-63
2021/09/02 04:58:19;;;;;;;13.90;9.45;;;;;;;11.70;84.72;100905.50;5003862;28;106259;-65
2021/09/02 05:00:44;;;;;;;13.43;8.25;;;;;;;11.88;84.95;100912.56;5001608;28;108062;-65
2021/09/02 05:03:10;;;;;;;16.52;10.07;;;;;;;12.07;85.18;100912.34;5003189;28;106430;-63
2021/09/02 05:05:35;;;;;;;12.40;9.05;;;;;;;12.25;85.26;100916.75;5004743;28;106430;-63
2021/09/02 05:08:01;;;;;;;11.93;8.38;;;;;;;12.44;85.47;100919.09;5004666;28;106236;-65
2021/09/02 05:10:26;;;;;;;13.95;8.40;;;;;;;12.65;85.49;100917.78;5004558;28;107447;-64
2021/09/02 05:12:52;;;;;;;12.85;7.70;;;;;;;12.82;84.95;100918.63;5003614;28;106362;-65
2021/09/02 05:15:18;;;;;;;11.90;8.13;;;;;;;13.00;85.05;100924.66;4984900;28;106410;-64
2021/09/02 05:17:47;;;;;;;12.18;7.80;;;;;;;13.17;84.79;100919.28;4986176;28;105971;-65
2021/09/02 05:20:13;;;;;;;17.83;8.23;;;;;;;13.32;84.44;100917.56;4985050;28;106149;-65
2021/09/02 05:22:39;;;;;;;12.77;8.02;;;;;;;13.48;84.50;100915.91;4965333;28;105953;-64
2021/09/02 05:25:05;;;;;;;13.88;8.38;;;;;;;13.61;84.43;100923.38;4962839;28;106822;-65
2021/09/02 05:27:31;;;;;;;11.13;7.18;;;;;;;13.73;84.23;100919.34;4965966;28;106033;-65
2021/09/02 05:29:56;;;;;;;16.50;7.88;;;;;;;13.85;83.88;100917.94;4965229;28;106291;-65
2021/09/02 05:32:21;;;;;;;11.40;7.15;;;;;;;14.02;83.95;100917.88;4965068;28;107945;-65
2021/09/02 05:34:46;;;;;;;19.02;8.13;;;;;;;14.17;83.70;100923.31;4964828;28;106114;-64
2021/09/02 05:37:12;;;;;;;11.63;8.02;;;;;;;14.34;83.39;100927.56;4966231;28;106114;-64
2021/09/02 05:39:37;;;;;;;10.52;7.15;;;;;;;14.48;83.42;100938.56;4965398;28;106294;-64
2021/09/02 05:42:03;;;;;;;12.20;7.97;;;;;;;14.61;82.91;100925.41;4963391;28;105960;-63
2021/09/02 05:44:28;;;;;;;11.10;8.00;;;;;;;14.76;82.89;100938.03;4964560;28;105857;-64
2021/09/02 05:46:55;;;;;;;19.33;13.80;;;;;;;14.92;83.11;100934.41;4965527;28;106002;-65
2021/09/02 05:49:21;;;;;;;13.55;8.77;;;;;;;15.08;82.55;100936.94;4964038;28;105747;-64
2021/09/02 05:51:46;;;;;;;14.23;7.25;;;;;;;15.23;82.47;100942.34;4964584;28;106358;-66
2021/09/02 05:54:12;;;;;;;11.98;7.43;;;;;;;15.37;81.91;100948.75;4964078;28;106321;-65
2021/09/02 05:56:37;;;;;;;16.55;8.27;;;;;;;15.50;81.56;100946.25;4965185;28;105905;-65
2021/09/02 05:59:03;;;;;;;8.82;6.30;;;;;;;15.66;81.21;100957.84;4964607;28;106344;-64
2021/09/02 06:01:28;;;;;;;24.20;15.65;;;;;;;15.76;80.67;100953.03;4964468;28;106035;-65
2021/09/02 06:03:53;;;;;;;23.55;16.83;;;;;;;15.90;80.57;100954.06;4963960;28;106051;-63
2021/09/02 06:06:19;;;;;;;15.20;7.50;;;;;;;16.04;80.55;100961.25;4956543;28;106296;-66
2021/09/02 06:08:44;;;;;;;13.10;7.20;;;;;;;16.14;80.37;100966.34;4951652;28;106092;-65
2021/09/02 06:11:10;;;;;;;12.63;7.95;;;;;;;16.31;80.03;100966.16;4951344;28;105868;-65
2021/09/02 06:13:35;;;;;;;9.93;6.93;;;;;;;16.45;79.25;100967.94;4949882;28;106163;-67
2021/09/02 06:16:01;;;;;;;9.40;6.55;;;;;;;16.61;79.16;100963.34;4952202;28;105959;-66
2021/09/02 06:18:28;;;;;;;9.02;6.57;;;;;;;16.75;78.92;100973.22;4951086;28;106648;-64
2021/09/02 06:20:53;;;;;;;11.77;7.53;;;;;;;16.89;78.41;100967.00;4950694;28;105968;-65
2021/09/02 06:23:18;;;;;;;13.30;7.90;;;;;;;17.04;78.12;100968.75;4950833;28;105926;-65
2021/09/02 06:25:44;;;;;;;11.13;7.18;;;;;;;17.20;77.85;100965.78;4950564;28;106016;-65
2021/09/02 06:28:09;;;;;;;11.20;6.53;;;;;;;17.39;77.78;100968.84;4951303;28;105931;-64
2021/09/02 06:30:35;;;;;;;12.80;6.15;;;;;;;17.53;77.23;100969.75;4951098;28;106331;-66
2021/09/02 06:33:00;;;;;;;13.65;6.80;;;;;;;17.69;77.07;100969.44;4950945;28;106273;-66
2021/09/02 06:35:26;;;;;;;9.27;5.13;;;;;;;17.88;76.90;100975.97;4951642;28;105956;-65
2021/09/02 06:37:51;;;;;;;10.98;5.65;;;;;;;18.07;76.27;100976.28;4951372;28;106204;-66
2021/09/02 06:40:17;;;;;;;10.40;5.65;;;;;;;18.26;76.00;100975.56;4964856;28;105933;-64
2021/09/02 06:42:42;;;;;;;11.18;6.80;;;;;;;18.41;75.26;100974.53;4970216;28;105824;-65
2021/09/02 06:45:09;;;;;;;12.05;5.72;;;;;;;18.56;74.66;100977.09;4971342;28;105808;-62
2021/09/02 06:47:34;;;;;;;10.07;5.43;;;;;;;18.73;74.55;100981.06;4970702;28;106172;-62
2021/09/02 06:50:00;;;;;;;10.90;6.00;;;;;;;18.89;73.34;100979.88;4970050;28;106547;-65
2021/09/02 06:52:25;;;;;;;14.35;6.82;;;;;;;18.93;73.01;100975.72;4970152;28;105897;-62
2021/09/02 06:54:51;;;;;;;16.90;10.88;;;;;;;19.14;73.09;100975.75;4970430;28;106013;-61
2021/09/02 06:57:16;;;;;;;16.27;12.02;;;;;;;19.34;72.34;100981.97;4969722;28;106193;-62
2021/09/02 06:59:42;;;;;;;12.52;5.95;;;;;;;19.51;72.03;100976.13;4969281;28;106278;-62
2021/09/02 07:02:07;;;;;;;8.27;4.97;;;;;;;19.66;71.27;100990.22;4969845;28;105862;-61
2021/09/02 07:04:32;;;;;;;11.70;5.25;;;;;;;19.78;70.42;100983.13;4970021;28;105964;-61
2021/09/02 07:06:58;;;;;;;8.52;5.10;;;;;;;19.93;70.02;100998.31;4970117;28;106313;-61
2021/09/02 07:09:23;;;;;;;9.75;5.13;;;;;;;20.11;69.83;100997.63;4969808;28;106025;-61
2021/09/02 07:11:48;;;;;;;9.93;5.03;;;;;;;20.32;69.17;100993.78;4969223;28;106062;-64
2021/09/02 07:14:14;;;;;;;7.70;5.10;;;;;;;20.51;68.67;100999.31;4970089;28;106538;-64
2021/09/02 07:16:39;;;;;;;7.85;5.50;;;;;;;20.71;67.98;100993.81;4969863;28;106169;-65
2021/09/02 07:19:04;;;;;;;8.63;5.70;;;;;;;20.79;67.04;100997.09;4969134;28;105890;-65
2021/09/02 07:21:30;;;;;;;8.70;5.80;;;;;;;20.91;66.10;100997.25;4969528;28;106269;-63
2021/09/02 07:23:55;;;;;;;11.00;4.82;;;;;;;20.98;65.84;100993.63;4970036;28;105842;-64
2021/09/02 07:26:22;;;;;;;8.02;5.13;;;;;;;21.10;65.10;100995.44;4968970;28;106466;-62
2021/09/02 07:28:47;;;;;;;9.60;7.53;;;;;;;21.18;64.60;100994.31;4969209;28;105872;-63
2021/09/02 07:31:13;;;;;;;14.20;10.52;;;;;;;21.38;64.37;100996.84;4969166;28;105943;-62
2021/09/02 07:33:38;;;;;;;11.10;4.55;;;;;;;21.57;63.62;100995.03;4969258;28;106183;-62
2021/09/02 07:36:04;;;;;;;8.65;4.70;;;;;;;21.79;63.15;100997.31;4969154;28;106271;-64
2021/09/02 07:38:29;;;;;;;6.47;3.63;;;;;;;21.97;62.26;100999.19;4968797;28;106546;-63
2021/09/02 07:40:55;;;;;;;10.88;4.28;;;;;;;22.03;61.34;101005.59;4968835;28;106179;-63
2021/09/02 07:43:20;;;;;;;9.98;5.50;;;;;;;22.11;60.03;101010.72;4969486;28;106012;-65
2021/09/02 07:45:46;;;;;;;11.68;4.90;;;;;;;21.95;59.09;101013.00;4969136;28;107128;-63
2021/09/02 07:48:11;;;;;;;9.88;4.47;;;;;;;21.91;59.93;101011.78;4967255;28;106245;-64
2021/09/02 07:50:36;;;;;;;10.77;3.75;;;;;;;22.14;60.02;101019.25;4968966;28;106500;-64
2021/09/02 07:53:02;;;;;;;8.23;4.40;;;;;;;22.44;59.12;101018.50;4968960;28;106028;-67
2021/09/02 07:55:27;;;;;;;7.10;4.40;;;;;;;22.63;58.44;101019.25;4968680;28;106159;-62
2021/09/02 07:57:53;;;;;;;10.75;5.25;;;;;;;22.78;57.32;101020.72;4968514;28;106208;-62
2021/09/02 08:00:18;;;;;;;8.10;4.88;;;;;;;22.81;56.70;101017.53;4968601;28;105881;-61
2021/09/02 08:02:45;;;;;;;7.38;3.97;;;;;;;22.88;56.41;101012.84;4969767;28;106100;-62
2021/09/02 08:05:11;;;;;;;7.70;4.03;;;;;;;22.91;55.27;101020.53;4969359;28;105861;-62
2021/09/02 08:07:53;;;;;;;6.50;3.97;;;;;;;23.02;56.17;101007.19;4968293;28;105820;-62
2021/09/02 08:10:22;;;;;;;7.88;3.85;;;;;;;23.34;55.66;101017.81;4967543;28;106752;-62
2021/09/02 08:12:47;;;;;;;8.98;3.72;;;;;;;23.74;55.15;101014.34;4969448;28;106051;-62
2021/09/02 08:15:13;;;;;;;7.38;3.75;;;;;;;24.10;54.04;101010.53;4969395;28;105771;-62
2021/09/02 08:17:40;;;;;;;4.93;3.00;;;;;;;24.24;52.59;101011.09;4969084;28;105898;-62
2021/09/02 08:20:06;;;;;;;7.18;3.25;;;;;;;24.16;51.75;101015.00;4968828;28;105879;-61
2021/09/02 08:22:32;;;;;;;6.13;3.22;;;;;;;24.43;51.38;101021.81;4969163;28;106098;-60
2021/09/02 08:24:57;;;;;;;4.95;3.08;;;;;;;24.61;50.20;101010.75;4968767;28;106171;-61
2021/09/02 08:27:23;;;;;;;6.55;3.53;;;;;;;24.76;50.05;101012.09;4968537;28;106097;-64
2021/09/02 08:29:48;;;;;;;6.75;3.22;;;;;;;24.92;48.27;101013.19;4968571;28;106115;-66
2021/09/02 08:32:14;;;;;;;4.25;2.95;;;;;;;25.07;48.68;101015.34;4969708;28;106045;-65
2021/09/02 08:34:39;;;;;;;5.28;3.00;;;;;;;25.26;47.53;101014.03;4968661;28;106131;-65
2021/09/02 08:37:05;;;;;;;6.45;3.00;;;;;;;25.39;46.76;101014.81;4968833;28;107130;-65
2021/09/02 08:39:30;;;;;;;5.38;3.22;;;;;;;25.80;46.63;101012.66;4968882;28;106060;-65
2021/09/02 08:41:56;;;;;;;6.75;3.67;;;;;;;26.05;44.65;101022.28;4969579;28;105991;-64
2021/09/02 08:44:23;;;;;;;6.97;3.20;;;;;;;26.16;43.27;101013.13;4968729;28;105674;-68
2021/09/02 08:46:48;;;;;;;7.15;3.20;;;;;;;26.71;42.92;101022.25;4968076;28;105830;-68
2021/09/02 08:49:20;;;;;;;6.70;3.40;;;;;;;29.03;39.72;101020.72;4968505;28;106074;-68
2021/09/02 08:51:47;;;;;;;4.68;2.88;;;;;;;30.53;36.55;101018.44;4968813;28;106082;-66
2021/09/02 08:54:13;;;;;;;4.97;2.85;;;;;;;32.83;35.21;101020.94;4968090;28;106095;-65
2021/09/02 08:56:39;;;;;;;4.20;2.80;;;;;;;35.93;29.92;101018.50;4967905;28;105950;-65
2021/09/02 08:59:04;;;;;;;6.00;3.17;;;;;;;37.93;25.64;101027.72;4967810;28;106030;-66
2021/09/02 09:01:30;;;;;;;8.02;2.97;;;;;;;38.82;23.90;101025.91;4968560;28;105825;-66
2021/09/02 09:03:55;;;;;;;7.65;3.30;;;;;;;39.46;22.41;101031.28;4967747;28;106079;-66
2021/09/02 09:06:27;;;;;;;8.45;3.60;;;;;;;38.86;22.76;101026.03;4967372;28;106121;-66
2021/09/02 09:08:52;;;;;;;5.82;3.08;;;;;;;40.05;21.81;101024.44;4967022;28;106293;-67
2021/09/02 09:11:21;;;;;;;6.93;2.75;;;;;;;40.71;20.75;101023.22;4968167;28;105875;-67
2021/09/02 09:14:02;;;;;;;5.88;3.30;;;;;;;41.71;20.05;101023.41;4967297;28;106245;-67
2021/09/02 09:16:51;;;;;;;6.57;3.10;;;;;;;42.95;19.09;101017.22;4967689;28;105800;-65
2021/09/02 09:19:57;;;;;;;5.35;3.05;;;;;;;44.19;18.00;101016.00;4967904;28;106345;-65
2021/09/02 09:22:24;;;;;;;6.10;3.05;;;;;;;46.16;16.63;101020.97;4965509;28;106178;-63
2021/09/02 09:24:59;;;;;;;6.18;3.10;;;;;;;45.60;16.78;101017.44;4967923;28;105882;-65
2021/09/02 09:27:31;;;;;;;5.47;3.13;;;;;;;43.44;17.90;101021.28;4967872;28;106001;-64
2021/09/02 09:30:08;;;;;;;5.30;3.15;;;;;;;43.39;18.15;101016.81;4967598;28;106211;-65
2021/09/02 09:32:47;;;;;;;5.30;3.55;;;;;;;45.48;16.33;101014.94;4967327;28;105805;-66
2021/09/02 09:35:16;;;;;;;4.70;2.55;;;;;;;47.71;14.43;101021.22;4967700;28;105866;-66
2021/09/02 09:37:42;;;;;;;8.20;3.20;;;;;;;47.58;14.34;101025.69;4966761;28;106900;-65
2021/09/02 09:40:09;;;;;;;10.80;3.65;;;;;;;46.38;14.99;101019.06;4967458;28;105996;-66
2021/09/02 09:42:35;;;;;;;7.35;3.33;;;;;;;44.61;16.23;101023.31;4970974;28;105968;-64
2021/09/02 09:45:00;;;;;;;6.18;3.47;;;;;;;44.76;16.05;101027.13;4970834;28;106094;-66
2021/09/02 09:47:27;;;;;;;8.52;2.95;;;;;;;42.80;16.92;101020.94;4970716;28;108033;-65
2021/09/02 09:49:57;;;;;;;3.92;2.83;;;;;;;43.89;16.02;101025.22;4970181;28;106109;-65
2021/09/02 09:52:29;;;;;;;4.28;3.13;;;;;;;45.44;14.91;101021.34;4971459;28;106053;-65
2021/09/02 09:55:11;;;;;;;4.55;2.90;;;;;;;47.87;12.94;101022.81;4970443;28;106654;-65
2021/09/02 09:57:38;;;;;;;5.72;3.10;;;;;;;49.16;11.89;101020.50;4970098;28;106759;-64
2021/09/02 10:00:08;;;;;;;5.30;3.03;;;;;;;50.17;10.90;101025.94;4970424;28;105800;-66
2021/09/02 10:02:38;;;;;;;5.50;3.22;;;;;;;50.79;10.42;101014.56;4971179;28;106011;-65
2021/09/02 10:05:05;;;;;;;5.22;2.90;;;;;;;47.70;11.74;101013.97;4970732;28;106190;-64
2021/09/02 10:07:33;;;;;;;8.35;3.35;;;;;;;44.56;14.36;101015.25;4970078;28;106185;-65
2021/09/02 10:09:58;;;;;;;5.40;3.03;;;;;;;41.60;16.12;101015.56;4968270;28;107756;-65
2021/09/02 10:12:24;;;;;;;5.25;3.20;;;;;;;42.06;16.24;101012.25;4971152;28;105939;-65
2021/09/02 10:14:50;;;;;;;4.50;3.28;;;;;;;41.98;16.08;101016.06;4969010;28;106653;-65
2021/09/02 10:17:15;;;;;;;4.45;3.03;;;;;;;40.87;16.88;101011.25;4970454;28;106757;-63
2021/09/02 10:19:42;;;;;;;4.05;2.92;;;;;;;43.09;14.95;101014.72;4969541;28;106308;-64
2021/09/02 10:22:08;;;;;;;4.95;3.00;;;;;;;45.68;13.19;101015.50;4970482;28;105808;-63
2021/09/02 10:24:37;;;;;;;7.60;3.20;;;;;;;47.03;11.88;101013.63;4969734;28;106236;-64
2021/09/02 10:27:22;;;;;;;5.25;3.60;;;;;;;48.68;11.12;101014.41;4969730;28;105947;-63
2021/09/02 10:29:49;;;;;;;6.53;3.10;;;;;;;50.24;10.55;101020.19;4968252;28;106238;-63
2021/09/02 10:32:24;;;;;;;4.40;3.17;;;;;;;52.13;9.12;101013.72;4970493;28;105961;-64
2021/09/02 10:35:01;;;;;;;4.80;2.90;;;;;;;52.79;8.85;101019.53;4969989;28;106547;-65
2021/09/02 10:37:40;;;;;;;4.88;3.10;;;;;;;52.04;8.83;101016.31;4969713;28;105820;-64
2021/09/02 10:40:29;;;;;;;5.75;3.13;;;;;;;52.52;8.41;101014.09;4969369;28;105934;-64
2021/09/02 10:42:57;;;;;;;4.50;3.17;;;;;;;51.78;8.74;101020.94;4970080;28;106303;-64
2021/09/02 10:45:25;;;;;;;5.88;3.78;;;;;;;50.53;9.50;101019.00;4969399;28;106313;-64
2021/09/02 10:47:55;;;;;;;8.70;6.63;;;;;;;50.39;9.61;101009.47;4969250;28;105991;-63
2021/09/02 10:50:23;;;;;;;6.13;3.33;;;;;;;52.08;8.91;101005.72;4969462;28;106314;-65
2021/09/02 10:52:50;;;;;;;6.07;2.80;;;;;;;52.82;8.44;101005.69;4970026;28;106060;-64
2021/09/02 10:55:33;;;;;;;4.25;2.92;;;;;;;52.47;8.19;100994.75;4969583;28;106126;-66
2021/09/02 10:58:01;;;;;;;4.35;2.80;;;;;;;49.29;10.11;100993.31;4967209;28;106113;-65
2021/09/02 11:00:31;;;;;;;;;;;;;;;46.14;12.02;100995.25;4969561;28;106474;-65
2021/09/02 11:03:19;;;;;;;6.28;3.50;;;;;;;48.24;10.67;100985.56;4970352;28;105840;-64
2021/09/02 11:05:53;;;;;;;6.10;3.40;;;;;;;49.63;10.24;100986.94;4970058;28;105792;-64
2021/09/02 11:08:36;;;;;;;6.20;3.20;;;;;;;47.12;11.38;100985.81;4969295;28;105800;-65
2021/09/02 11:11:19;;;;;;;6.95;3.20;;;;;;;48.24;10.86;100981.94;4969277;28;105891;-65
2021/09/02 11:13:49;;;;;;;4.85;3.25;;;;;;;45.33;12.55;100985.88;4969609;28;105929;-65
2021/09/02 11:16:17;;;;;;;10.75;3.45;;;;;;;42.47;14.09;100991.50;4969413;28;105893;-65
2021/09/02 11:18:45;;;;;;;7.07;3.75;;;;;;;45.18;12.66;100984.97;4968884;28;105960;-65
2021/09/02 11:21:16;;;;;;;11.82;4.32;;;;;;;48.11;10.60;100985.19;4969236;28;106032;-65
2021/09/02 11:23:45;;;;;;;8.38;3.65;;;;;;;49.43;9.83;100989.53;4969885;28;106055;-65
2021/09/02 11:26:12;;;;;;;9.52;3.53;;;;;;;47.95;10.58;100982.84;4968409;28;106318;-65
2021/09/02 11:28:50;;;;;;;6.10;3.53;;;;;;;48.47;10.27;100985.00;4968571;28;106781;-65
2021/09/02 11:31:15;;;;;;;8.68;3.78;;;;;;;50.78;9.17;100993.09;4968715;28;106097;-65
2021/09/02 11:33:45;;;;;;;6.72;3.22;;;;;;;50.89;8.52;100987.25;4970156;28;106086;-64
2021/09/02 11:36:10;;;;;;;7.70;3.40;;;;;;;51.08;8.85;100986.53;4967463;28;106066;-64
2021/09/02 11:38:35;;;;;;;6.55;3.10;;;;;;;49.68;9.19;100966.66;4968959;28;106049;-65
2021/09/02 11:41:09;;;;;;;13.38;9.77;;;;;;;44.84;11.75;100988.69;4968736;28;106046;-64
2021/09/02 11:43:40;;;;;;;7.85;3.00;;;;;;;45.57;11.50;100985.25;4969940;28;106120;-65
2021/09/02 11:46:06;;;;;;;4.55;3.15;;;;;;;45.03;11.86;100987.66;4968692;28;105927;-66
2021/09/02 11:48:49;;;;;;;5.68;3.40;;;;;;;43.19;13.12;100976.81;4968708;28;106657;-65
2021/09/02 11:51:26;;;;;;;6.07;3.33;;;;;;;44.49;12.54;100980.66;4968507;28;106006;-66
2021/09/02 11:54:09;;;;;;;6.68;3.15;;;;;;;44.30;12.38;100976.03;4969095;28;106117;-66
2021/09/02 11:56:36;;;;;;;4.88;3.00;;;;;;;43.68;13.07;100974.41;4968079;28;106258;-65
2021/09/02 11:59:04;;;;;;;5.47;3.15;;;;;;;42.26;13.74;100975.88;4968892;28;106477;-66
2021/09/02 12:01:29;;;;;;;5.40;2.92;;;;;;;41.05;14.91;100976.25;4968058;28;106012;-66
2021/09/02 12:03:55;;;;;;;5.57;3.15;;;;;;;38.98;16.38;100964.78;4968629;28;106064;-68
2021/09/02 12:06:29;;;;;;;5.30;3.20;;;;;;;37.33;17.96;100967.66;4967579;28;106066;-66
2021/09/02 12:08:57;;;;;;;8.70;5.13;;;;;;;36.61;18.40;100956.22;4948527;28;106975;-66
2021/09/02 12:11:23;;;;;;;8.80;3.90;;;;;;;36.12;18.83;100953.63;4948841;28;106104;-67
2021/09/02 12:13:48;;;;;;;5.57;3.25;;;;;;;35.28;19.70;100959.06;4949436;28;105817;-68
2021/09/02 12:16:17;;;;;;;6.75;3.03;;;;;;;34.83;20.12;100958.03;4948973;28;106187;-66
2021/09/02 12:18:44;;;;;;;6.18;3.33;;;;;;;33.92;20.65;100954.31;4948413;28;107724;-65
2021/09/02 12:21:14;;;;;;;6.85;3.78;;;;;;;33.02;21.08;100958.22;4948365;28;105835;-67
2021/09/02 12:23:43;;;;;;;5.55;3.35;;;;;;;32.13;22.22;100957.13;4949092;28;105869;-66
2021/09/02 12:26:09;;;;;;;6.55;3.13;;;;;;;31.42;23.58;100942.31;4948637;28;105994;-66
2021/09/02 12:28:43;;;;;;;7.95;3.80;;;;;;;31.39;23.92;100935.44;4948362;28;107079;-66
2021/09/02 12:31:13;;;;;;;4.90;3.20;;;;;;;31.39;23.57;100932.69;4948069;28;106094;-66
2021/09/02 12:34:11;;;;;;;7.68;3.40;;;;;;;31.38;23.76;100931.06;4949353;28;106392;-66
2021/09/02 12:36:36;;;;;;;6.53;3.78;;;;;;;31.49;23.46;100927.06;4948262;28;106257;-67
2021/09/02 12:39:25;;;;;;;8.40;3.45;;;;;;;31.52;23.45;100931.16;4948264;28;106525;-67
2021/09/02 12:41:53;;;;;;;5.18;3.47;;;;;;;30.93;24.03;100930.41;4948614;28;105944;-67
2021/09/02 12:44:50;;;;;;;6.75;3.25;;;;;;;30.50;24.73;100926.34;4948884;28;105990;-69
2021/09/02 12:47:18;;;;;;;5.70;3.47;;;;;;;30.75;24.57;100926.44;4931261;28;105875;-67
2021/09/02 12:49:50;;;;;;;4.60;3.08;;;;;;;30.39;25.55;100933.00;4948374;28;106385;-70
2021/09/02 12:52:27;;;;;;;7.53;3.83;;;;;;;30.53;25.82;100925.78;4964678;28;106168;-67
2021/09/02 12:55:19;;;;;;;6.47;3.35;;;;;;;30.82;25.17;100921.41;4967964;28;105943;-68
2021/09/02 12:57:51;;;;;;;9.05;3.58;;;;;;;31.04;25.21;100920.94;4958546;28;106039;-70
2021/09/02 13:00:33;;;;;;;6.78;3.20;;;;;;;31.39;24.90;100921.69;4966911;28;105978;-67
2021/09/02 13:03:04;;;;;;;7.95;3.80;;;;;;;31.53;24.37;100930.06;4967881;28;106379;-67
2021/09/02 13:05:30;;;;;;;11.57;3.55;;;;;;;31.14;24.67;100920.03;4968247;28;106363;-67
2021/09/02 13:07:58;;;;;;;6.75;3.58;;;;;;;30.71;25.32;100921.53;4968286;28;106145;-67
2021/09/02 13:10:26;;;;;;;8.40;3.38;;;;;;;30.26;25.55;100926.22;4967667;28;106398;-67
2021/09/02 13:12:53;;;;;;;6.05;3.65;;;;;;;29.99;26.20;100918.41;4967761;28;105877;-68
2021/09/02 13:15:20;;;;;;;19.95;15.40;;;;;;;29.78;26.29;100912.19;4968687;28;106096;-68
2021/09/02 13:17:45;;;;;;;14.45;10.77;;;;;;;29.94;26.18;100913.78;4971655;28;105908;-68
2021/09/02 13:20:12;;;;;;;7.10;3.88;;;;;;;29.91;26.41;100908.88;4971138;28;106311;-69
2021/09/02 13:22:38;;;;;;;7.97;3.35;;;;;;;29.87;26.02;100905.84;4971043;28;106282;-68
2021/09/02 13:25:06;;;;;;;5.28;3.33;;;;;;;29.58;26.56;100907.59;4971986;28;106019;-69
2021/09/02 13:27:31;;;;;;;5.95;3.50;;;;;;;29.14;26.59;100911.81;4970563;28;106177;-68
